sensor_id;sensor_type;location;lat;lon;timestamp;P1;durP1;ratioP1;P2;durP2;ratioP2
72065;SDS011;59939;52.516;13.420;2023-01-16T00:02:08;3.33;;;1.10;;
72065;SDS011;59939;52.516;13.420;2023-01-16T00:05:20;4.27;;;1.13;;
72065;SDS011;59939;52.516;13.420;2023-01-16T00:08:24;4.27;;;1.27;;
72065;SDS011;59939;52.516;13.420;2023-01-16T00:11:28;1.37;;;0.80;;
72065;SDS011;59939;52.516;13.420;2023-01-16T00:14:32;2.50;;;0.80;;
72065;SDS011;59939;52.516;13.420;2023-01-16T00:17:37;3.17;;;1.00;;
72065;SDS011;59939;52.516;13.420;2023-01-16T00:20:41;3.53;;;1.20;;
72065;SDS011;59939;52.516;13.420;2023-01-16T00:23:45;1.73;;;1.03;;
72065;SDS011;59939;52.516;13.420;2023-01-16T00:26:49;4.57;;;1.50;;
72065;SDS011;59939;52.516;13.420;2023-01-16T00:29:56;5.10;;;1.30;;
72065;SDS011;59939;52.516;13.420;2023-01-16T00:33:00;2.80;;;1.00;;
72065;SDS011;59939;52.516;13.420;2023-01-16T00:36:05;4.50;;;1.70;;
72065;SDS011;59939;52.516;13.420;2023-01-16T00:39:23;4.07;;;1.10;;
72065;SDS011;59939;52.516;13.420;2023-01-16T00:45:58;5.30;;;1.20;;
72065;SDS011;59939;52.516;13.420;2023-01-16T00:49:03;5.70;;;1.60;;
72065;SDS011;59939;52.516;13.420;2023-01-16T00:52:18;1.70;;;0.90;;
72065;SDS011;59939;52.516;13.420;2023-01-16T00:55:25;5.90;;;1.30;;
72065;SDS011;59939;52.516;13.420;2023-01-16T00:58:29;5.77;;;1.53;;
72065;SDS011;59939;52.516;13.420;2023-01-16T01:01:33;2.13;;;1.17;;
72065;SDS011;59939;52.516;13.420;2023-01-16T01:04:37;5.60;;;1.40;;
72065;SDS011;59939;52.516;13.420;2023-01-16T01:07:43;4.37;;;1.50;;
72065;SDS011;59939;52.516;13.420;2023-01-16T01:10:54;5.13;;;1.50;;
72065;SDS011;59939;52.516;13.420;2023-01-16T01:13:59;2.27;;;1.20;;
72065;SDS011;59939;52.516;13.420;2023-01-16T01:17:10;4.53;;;1.20;;
72065;SDS011;59939;52.516;13.420;2023-01-16T01:20:14;9.23;;;1.33;;
72065;SDS011;59939;52.516;13.420;2023-01-16T01:23:18;3.30;;;1.00;;
72065;SDS011;59939;52.516;13.420;2023-01-16T01:26:23;2.60;;;1.07;;
72065;SDS011;59939;52.516;13.420;2023-01-16T01:29:26;3.10;;;1.27;;
72065;SDS011;59939;52.516;13.420;2023-01-16T01:32:30;9.20;;;1.70;;
72065;SDS011;59939;52.516;13.420;2023-01-16T01:35:35;3.13;;;1.20;;
72065;SDS011;59939;52.516;13.420;2023-01-16T01:38:39;2.57;;;1.10;;
72065;SDS011;59939;52.516;13.420;2023-01-16T01:41:47;3.43;;;1.00;;
72065;SDS011;59939;52.516;13.420;2023-01-16T01:44:53;4.97;;;1.30;;
72065;SDS011;59939;52.516;13.420;2023-01-16T01:48:35;2.00;;;1.17;;
72065;SDS011;59939;52.516;13.420;2023-01-16T01:51:37;3.60;;;1.20;;
72065;SDS011;59939;52.516;13.420;2023-01-16T01:54:43;2.40;;;1.20;;
72065;SDS011;59939;52.516;13.420;2023-01-16T01:57:54;1.60;;;1.23;;
72065;SDS011;59939;52.516;13.420;2023-01-16T02:01:02;4.33;;;1.27;;
72065;SDS011;59939;52.516;13.420;2023-01-16T02:04:15;2.73;;;1.10;;
72065;SDS011;59939;52.516;13.420;2023-01-16T02:07:24;3.27;;;1.00;;
72065;SDS011;59939;52.516;13.420;2023-01-16T02:13:36;3.03;;;1.10;;
72065;SDS011;59939;52.516;13.420;2023-01-16T02:16:45;5.13;;;1.37;;
72065;SDS011;59939;52.516;13.420;2023-01-16T02:33:13;4.80;;;1.50;;
72065;SDS011;59939;52.516;13.420;2023-01-16T02:36:37;3.57;;;1.10;;
72065;SDS011;59939;52.516;13.420;2023-01-16T02:39:47;4.33;;;1.30;;
72065;SDS011;59939;52.516;13.420;2023-01-16T02:42:57;2.20;;;1.00;;
72065;SDS011;59939;52.516;13.420;2023-01-16T02:46:05;2.93;;;1.20;;
72065;SDS011;59939;52.516;13.420;2023-01-16T02:49:16;2.40;;;1.17;;
72065;SDS011;59939;52.516;13.420;2023-01-16T02:55:34;2.37;;;1.43;;
72065;SDS011;59939;52.516;13.420;2023-01-16T02:58:40;5.30;;;1.50;;
72065;SDS011;59939;52.516;13.420;2023-01-16T03:01:46;4.10;;;1.47;;
72065;SDS011;59939;52.516;13.420;2023-01-16T03:05:05;16.57;;;7.63;;
72065;SDS011;59939;52.516;13.420;2023-01-16T03:08:16;39.50;;;21.07;;
72065;SDS011;59939;52.516;13.420;2023-01-16T03:11:24;39.70;;;22.03;;
72065;SDS011;59939;52.516;13.420;2023-01-16T03:14:40;37.17;;;22.00;;
72065;SDS011;59939;52.516;13.420;2023-01-16T03:21:00;39.60;;;25.40;;
72065;SDS011;59939;52.516;13.420;2023-01-16T03:24:29;33.00;;;18.77;;
72065;SDS011;59939;52.516;13.420;2023-01-16T03:30:51;12.83;;;3.17;;
72065;SDS011;59939;52.516;13.420;2023-01-16T03:33:59;7.33;;;2.23;;
72065;SDS011;59939;52.516;13.420;2023-01-16T03:37:11;3.53;;;1.90;;
72065;SDS011;59939;52.516;13.420;2023-01-16T03:40:21;5.80;;;2.30;;
72065;SDS011;59939;52.516;13.420;2023-01-16T03:43:30;4.13;;;1.27;;
72065;SDS011;59939;52.516;13.420;2023-01-16T03:46:37;3.23;;;1.20;;
72065;SDS011;59939;52.516;13.420;2023-01-16T03:49:46;5.47;;;1.53;;
72065;SDS011;59939;52.516;13.420;2023-01-16T03:52:54;5.03;;;1.17;;
72065;SDS011;59939;52.516;13.420;2023-01-16T03:56:04;5.47;;;1.83;;
72065;SDS011;59939;52.516;13.420;2023-01-16T03:59:24;2.53;;;1.07;;
72065;SDS011;59939;52.516;13.420;2023-01-16T04:02:52;0.90;;;0.90;;
72065;SDS011;59939;52.516;13.420;2023-01-16T04:06:08;7.17;;;1.90;;
72065;SDS011;59939;52.516;13.420;2023-01-16T04:09:24;3.57;;;1.50;;
72065;SDS011;59939;52.516;13.420;2023-01-16T04:12:36;1.43;;;1.20;;
72065;SDS011;59939;52.516;13.420;2023-01-16T04:15:51;3.83;;;1.37;;
72065;SDS011;59939;52.516;13.420;2023-01-16T04:18:56;3.60;;;1.47;;
72065;SDS011;59939;52.516;13.420;2023-01-16T04:22:08;3.93;;;1.43;;
72065;SDS011;59939;52.516;13.420;2023-01-16T04:25:22;5.80;;;1.93;;
72065;SDS011;59939;52.516;13.420;2023-01-16T04:28:26;4.30;;;1.37;;
72065;SDS011;59939;52.516;13.420;2023-01-16T04:31:29;3.70;;;1.27;;
72065;SDS011;59939;52.516;13.420;2023-01-16T04:34:33;6.03;;;1.40;;
72065;SDS011;59939;52.516;13.420;2023-01-16T04:37:37;4.67;;;1.70;;
72065;SDS011;59939;52.516;13.420;2023-01-16T04:40:40;5.00;;;1.40;;
72065;SDS011;59939;52.516;13.420;2023-01-16T04:43:52;5.93;;;1.50;;
72065;SDS011;59939;52.516;13.420;2023-01-16T04:46:56;5.03;;;1.73;;
72065;SDS011;59939;52.516;13.420;2023-01-16T04:49:59;7.93;;;2.10;;
72065;SDS011;59939;52.516;13.420;2023-01-16T04:53:03;4.00;;;1.40;;
72065;SDS011;59939;52.516;13.420;2023-01-16T04:56:07;4.50;;;1.77;;
72065;SDS011;59939;52.516;13.420;2023-01-16T04:59:13;8.50;;;1.60;;
72065;SDS011;59939;52.516;13.420;2023-01-16T05:02:17;7.77;;;2.30;;
72065;SDS011;59939;52.516;13.420;2023-01-16T05:05:21;4.80;;;1.60;;
72065;SDS011;59939;52.516;13.420;2023-01-16T05:08:24;6.33;;;1.60;;
72065;SDS011;59939;52.516;13.420;2023-01-16T05:11:31;6.43;;;1.57;;
72065;SDS011;59939;52.516;13.420;2023-01-16T05:14:35;5.10;;;1.67;;
72065;SDS011;59939;52.516;13.420;2023-01-16T05:17:39;7.43;;;1.80;;
72065;SDS011;59939;52.516;13.420;2023-01-16T05:20:42;7.73;;;1.70;;
72065;SDS011;59939;52.516;13.420;2023-01-16T05:23:46;3.13;;;1.40;;
72065;SDS011;59939;52.516;13.420;2023-01-16T05:26:49;5.53;;;1.87;;
72065;SDS011;59939;52.516;13.420;2023-01-16T05:29:53;7.27;;;2.00;;
72065;SDS011;59939;52.516;13.420;2023-01-16T05:32:57;5.97;;;1.50;;
72065;SDS011;59939;52.516;13.420;2023-01-16T05:36:00;2.23;;;1.50;;
72065;SDS011;59939;52.516;13.420;2023-01-16T05:39:04;5.90;;;1.93;;
72065;SDS011;59939;52.516;13.420;2023-01-16T05:42:08;4.50;;;1.30;;
72065;SDS011;59939;52.516;13.420;2023-01-16T05:45:24;5.67;;;1.67;;
72065;SDS011;59939;52.516;13.420;2023-01-16T05:48:28;6.20;;;2.30;;
72065;SDS011;59939;52.516;13.420;2023-01-16T05:51:34;6.93;;;1.80;;
72065;SDS011;59939;52.516;13.420;2023-01-16T05:54:38;3.50;;;1.20;;
72065;SDS011;59939;52.516;13.420;2023-01-16T05:57:42;8.97;;;2.87;;
72065;SDS011;59939;52.516;13.420;2023-01-16T06:00:46;6.63;;;1.97;;
72065;SDS011;59939;52.516;13.420;2023-01-16T06:03:50;6.97;;;2.27;;
72065;SDS011;59939;52.516;13.420;2023-01-16T06:06:54;3.30;;;1.47;;
72065;SDS011;59939;52.516;13.420;2023-01-16T06:09:57;3.40;;;1.33;;
72065;SDS011;59939;52.516;13.420;2023-01-16T06:13:02;6.07;;;1.70;;
72065;SDS011;59939;52.516;13.420;2023-01-16T06:16:06;6.20;;;1.70;;
72065;SDS011;59939;52.516;13.420;2023-01-16T06:19:10;4.07;;;1.37;;
72065;SDS011;59939;52.516;13.420;2023-01-16T06:22:14;3.43;;;1.63;;
72065;SDS011;59939;52.516;13.420;2023-01-16T06:25:17;6.80;;;1.80;;
72065;SDS011;59939;52.516;13.420;2023-01-16T06:28:21;3.30;;;1.43;;
72065;SDS011;59939;52.516;13.420;2023-01-16T06:31:25;5.67;;;1.47;;
72065;SDS011;59939;52.516;13.420;2023-01-16T06:34:29;6.70;;;2.33;;
72065;SDS011;59939;52.516;13.420;2023-01-16T06:37:33;7.00;;;1.93;;
72065;SDS011;59939;52.516;13.420;2023-01-16T06:40:36;5.63;;;2.03;;
72065;SDS011;59939;52.516;13.420;2023-01-16T06:43:40;9.53;;;2.10;;
72065;SDS011;59939;52.516;13.420;2023-01-16T06:46:44;5.17;;;1.50;;
72065;SDS011;59939;52.516;13.420;2023-01-16T06:49:48;5.70;;;1.67;;
72065;SDS011;59939;52.516;13.420;2023-01-16T06:52:51;5.30;;;1.50;;
72065;SDS011;59939;52.516;13.420;2023-01-16T06:55:56;2.20;;;1.37;;
72065;SDS011;59939;52.516;13.420;2023-01-16T06:58:59;8.27;;;2.03;;
72065;SDS011;59939;52.516;13.420;2023-01-16T07:02:03;2.63;;;1.40;;
72065;SDS011;59939;52.516;13.420;2023-01-16T07:05:07;5.47;;;2.00;;
72065;SDS011;59939;52.516;13.420;2023-01-16T07:08:11;6.27;;;1.40;;
72065;SDS011;59939;52.516;13.420;2023-01-16T07:11:15;4.87;;;1.77;;
72065;SDS011;59939;52.516;13.420;2023-01-16T07:14:19;11.80;;;2.63;;
72065;SDS011;59939;52.516;13.420;2023-01-16T07:17:42;4.23;;;1.37;;
72065;SDS011;59939;52.516;13.420;2023-01-16T07:21:07;5.50;;;1.73;;
72065;SDS011;59939;52.516;13.420;2023-01-16T07:24:33;6.47;;;1.83;;
72065;SDS011;59939;52.516;13.420;2023-01-16T07:27:38;6.23;;;1.60;;
72065;SDS011;59939;52.516;13.420;2023-01-16T07:30:43;4.83;;;1.57;;
72065;SDS011;59939;52.516;13.420;2023-01-16T07:33:47;9.80;;;2.47;;
72065;SDS011;59939;52.516;13.420;2023-01-16T07:36:50;4.57;;;1.90;;
72065;SDS011;59939;52.516;13.420;2023-01-16T07:39:54;6.53;;;1.83;;
72065;SDS011;59939;52.516;13.420;2023-01-16T07:42:58;9.53;;;2.27;;
72065;SDS011;59939;52.516;13.420;2023-01-16T07:46:01;9.97;;;2.00;;
72065;SDS011;59939;52.516;13.420;2023-01-16T07:49:05;13.83;;;2.77;;
72065;SDS011;59939;52.516;13.420;2023-01-16T07:52:09;6.87;;;1.97;;
72065;SDS011;59939;52.516;13.420;2023-01-16T07:55:13;5.07;;;1.40;;
72065;SDS011;59939;52.516;13.420;2023-01-16T07:58:18;4.33;;;1.93;;
72065;SDS011;59939;52.516;13.420;2023-01-16T08:01:22;8.17;;;2.43;;
72065;SDS011;59939;52.516;13.420;2023-01-16T08:04:26;4.23;;;1.90;;
72065;SDS011;59939;52.516;13.420;2023-01-16T08:07:30;7.93;;;2.03;;
72065;SDS011;59939;52.516;13.420;2023-01-16T08:10:34;8.23;;;2.60;;
72065;SDS011;59939;52.516;13.420;2023-01-16T08:13:37;5.17;;;1.97;;
72065;SDS011;59939;52.516;13.420;2023-01-16T08:16:44;6.87;;;2.17;;
72065;SDS011;59939;52.516;13.420;2023-01-16T08:19:47;11.47;;;2.23;;
72065;SDS011;59939;52.516;13.420;2023-01-16T08:22:51;9.73;;;2.60;;
72065;SDS011;59939;52.516;13.420;2023-01-16T08:25:55;9.20;;;2.30;;
72065;SDS011;59939;52.516;13.420;2023-01-16T08:28:59;6.83;;;1.77;;
72065;SDS011;59939;52.516;13.420;2023-01-16T08:32:05;7.07;;;2.07;;
72065;SDS011;59939;52.516;13.420;2023-01-16T08:35:09;10.77;;;2.47;;
72065;SDS011;59939;52.516;13.420;2023-01-16T08:38:13;7.60;;;2.00;;
72065;SDS011;59939;52.516;13.420;2023-01-16T08:41:18;8.40;;;2.00;;
72065;SDS011;59939;52.516;13.420;2023-01-16T08:44:40;4.10;;;1.50;;
72065;SDS011;59939;52.516;13.420;2023-01-16T08:48:03;7.87;;;2.30;;
72065;SDS011;59939;52.516;13.420;2023-01-16T08:51:25;11.73;;;2.40;;
72065;SDS011;59939;52.516;13.420;2023-01-16T08:54:30;8.67;;;2.43;;
72065;SDS011;59939;52.516;13.420;2023-01-16T08:57:33;6.97;;;1.90;;
72065;SDS011;59939;52.516;13.420;2023-01-16T09:00:38;9.73;;;2.37;;
72065;SDS011;59939;52.516;13.420;2023-01-16T09:03:44;7.20;;;2.50;;
72065;SDS011;59939;52.516;13.420;2023-01-16T09:06:48;7.23;;;2.67;;
72065;SDS011;59939;52.516;13.420;2023-01-16T09:09:54;4.70;;;2.43;;
72065;SDS011;59939;52.516;13.420;2023-01-16T09:12:58;9.03;;;2.27;;
72065;SDS011;59939;52.516;13.420;2023-01-16T09:16:22;7.03;;;2.17;;
72065;SDS011;59939;52.516;13.420;2023-01-16T09:19:26;10.43;;;2.70;;
72065;SDS011;59939;52.516;13.420;2023-01-16T09:22:30;3.90;;;1.60;;
72065;SDS011;59939;52.516;13.420;2023-01-16T09:25:34;5.80;;;2.17;;
72065;SDS011;59939;52.516;13.420;2023-01-16T09:28:38;4.87;;;1.90;;
72065;SDS011;59939;52.516;13.420;2023-01-16T09:31:44;5.63;;;1.93;;
72065;SDS011;59939;52.516;13.420;2023-01-16T09:34:48;5.80;;;2.03;;
72065;SDS011;59939;52.516;13.420;2023-01-16T09:37:52;8.47;;;2.30;;
72065;SDS011;59939;52.516;13.420;2023-01-16T09:40:57;10.33;;;2.20;;
72065;SDS011;59939;52.516;13.420;2023-01-16T09:44:02;5.23;;;1.90;;
72065;SDS011;59939;52.516;13.420;2023-01-16T09:47:09;10.40;;;2.37;;
72065;SDS011;59939;52.516;13.420;2023-01-16T09:53:37;4.43;;;1.80;;
72065;SDS011;59939;52.516;13.420;2023-01-16T09:57:02;5.50;;;1.63;;
72065;SDS011;59939;52.516;13.420;2023-01-16T10:00:29;11.10;;;3.20;;
72065;SDS011;59939;52.516;13.420;2023-01-16T10:03:34;12.73;;;2.83;;
72065;SDS011;59939;52.516;13.420;2023-01-16T10:07:01;9.27;;;2.20;;
72065;SDS011;59939;52.516;13.420;2023-01-16T10:20:40;8.27;;;2.53;;
72065;SDS011;59939;52.516;13.420;2023-01-16T10:23:54;7.03;;;1.67;;
72065;SDS011;59939;52.516;13.420;2023-01-16T10:30:29;9.33;;;1.77;;
72065;SDS011;59939;52.516;13.420;2023-01-16T10:33:40;3.33;;;1.40;;
72065;SDS011;59939;52.516;13.420;2023-01-16T10:36:56;10.17;;;1.83;;
72065;SDS011;59939;52.516;13.420;2023-01-16T10:40:11;4.80;;;1.47;;
72065;SDS011;59939;52.516;13.420;2023-01-16T10:43:23;6.63;;;1.80;;
72065;SDS011;59939;52.516;13.420;2023-01-16T10:46:50;4.90;;;1.40;;
72065;SDS011;59939;52.516;13.420;2023-01-16T10:50:16;9.57;;;2.93;;
72065;SDS011;59939;52.516;13.420;2023-01-16T10:53:33;2.40;;;1.40;;
72065;SDS011;59939;52.516;13.420;2023-01-16T10:56:45;3.53;;;1.63;;
72065;SDS011;59939;52.516;13.420;2023-01-16T10:59:50;8.50;;;2.03;;
72065;SDS011;59939;52.516;13.420;2023-01-16T11:02:58;4.83;;;1.20;;
72065;SDS011;59939;52.516;13.420;2023-01-16T11:09:19;4.90;;;1.60;;
72065;SDS011;59939;52.516;13.420;2023-01-16T11:12:25;3.97;;;1.40;;
72065;SDS011;59939;52.516;13.420;2023-01-16T11:16:00;8.60;;;1.93;;
72065;SDS011;59939;52.516;13.420;2023-01-16T11:19:40;6.80;;;2.03;;
72065;SDS011;59939;52.516;13.420;2023-01-16T11:22:44;6.77;;;1.90;;
72065;SDS011;59939;52.516;13.420;2023-01-16T11:25:51;5.07;;;1.70;;
72065;SDS011;59939;52.516;13.420;2023-01-16T11:28:56;7.30;;;2.50;;
72065;SDS011;59939;52.516;13.420;2023-01-16T11:32:03;6.43;;;1.73;;
72065;SDS011;59939;52.516;13.420;2023-01-16T11:35:12;7.00;;;2.00;;
72065;SDS011;59939;52.516;13.420;2023-01-16T11:38:18;5.30;;;1.67;;
72065;SDS011;59939;52.516;13.420;2023-01-16T11:41:24;7.13;;;2.00;;
72065;SDS011;59939;52.516;13.420;2023-01-16T11:44:32;4.43;;;1.80;;
72065;SDS011;59939;52.516;13.420;2023-01-16T11:47:58;6.37;;;1.73;;
72065;SDS011;59939;52.516;13.420;2023-01-16T11:51:04;5.67;;;1.50;;
72065;SDS011;59939;52.516;13.420;2023-01-16T11:54:13;3.37;;;1.20;;
72065;SDS011;59939;52.516;13.420;2023-01-16T12:00:34;7.40;;;1.97;;
72065;SDS011;59939;52.516;13.420;2023-01-16T12:07:19;6.30;;;2.20;;
72065;SDS011;59939;52.516;13.420;2023-01-16T12:13:38;5.40;;;2.20;;
72065;SDS011;59939;52.516;13.420;2023-01-16T12:17:10;12.03;;;2.07;;
72065;SDS011;59939;52.516;13.420;2023-01-16T12:20:35;7.80;;;2.67;;
72065;SDS011;59939;52.516;13.420;2023-01-16T12:24:02;5.33;;;1.53;;
72065;SDS011;59939;52.516;13.420;2023-01-16T12:27:27;2.83;;;1.60;;
72065;SDS011;59939;52.516;13.420;2023-01-16T12:30:44;6.40;;;2.10;;
72065;SDS011;59939;52.516;13.420;2023-01-16T12:34:04;6.10;;;1.63;;
72065;SDS011;59939;52.516;13.420;2023-01-16T12:41:03;7.53;;;2.10;;
72065;SDS011;59939;52.516;13.420;2023-01-16T12:44:46;4.77;;;1.93;;
72065;SDS011;59939;52.516;13.420;2023-01-16T12:51:39;5.77;;;1.83;;
72065;SDS011;59939;52.516;13.420;2023-01-16T12:58:16;3.37;;;1.23;;
72065;SDS011;59939;52.516;13.420;2023-01-16T13:01:23;6.93;;;2.13;;
72065;SDS011;59939;52.516;13.420;2023-01-16T13:04:29;8.90;;;2.00;;
72065;SDS011;59939;52.516;13.420;2023-01-16T13:07:37;7.07;;;2.17;;
72065;SDS011;59939;52.516;13.420;2023-01-16T13:10:45;6.03;;;2.17;;
72065;SDS011;59939;52.516;13.420;2023-01-16T13:14:08;4.50;;;1.63;;
72065;SDS011;59939;52.516;13.420;2023-01-16T13:17:24;4.50;;;1.87;;
72065;SDS011;59939;52.516;13.420;2023-01-16T13:20:34;6.23;;;1.90;;
72065;SDS011;59939;52.516;13.420;2023-01-16T13:26:45;6.23;;;2.20;;
72065;SDS011;59939;52.516;13.420;2023-01-16T13:29:54;5.57;;;1.67;;
72065;SDS011;59939;52.516;13.420;2023-01-16T13:33:04;5.73;;;1.80;;
72065;SDS011;59939;52.516;13.420;2023-01-16T13:42:48;5.33;;;1.30;;
72065;SDS011;59939;52.516;13.420;2023-01-16T13:45:55;2.97;;;1.40;;
72065;SDS011;59939;52.516;13.420;2023-01-16T13:49:00;3.67;;;1.60;;
72065;SDS011;59939;52.516;13.420;2023-01-16T13:52:11;4.87;;;1.50;;
72065;SDS011;59939;52.516;13.420;2023-01-16T13:55:30;3.33;;;1.60;;
72065;SDS011;59939;52.516;13.420;2023-01-16T13:58:42;3.83;;;1.50;;
72065;SDS011;59939;52.516;13.420;2023-01-16T14:08:24;5.63;;;1.57;;
72065;SDS011;59939;52.516;13.420;2023-01-16T14:12:16;8.70;;;1.67;;
72065;SDS011;59939;52.516;13.420;2023-01-16T14:15:22;1.70;;;1.10;;
72065;SDS011;59939;52.516;13.420;2023-01-16T14:19:02;5.50;;;1.43;;
72065;SDS011;59939;52.516;13.420;2023-01-16T14:22:16;12.57;;;1.97;;
72065;SDS011;59939;52.516;13.420;2023-01-16T14:25:22;7.07;;;1.80;;
72065;SDS011;59939;52.516;13.420;2023-01-16T14:28:27;7.23;;;2.20;;
72065;SDS011;59939;52.516;13.420;2023-01-16T14:31:40;5.67;;;1.83;;
72065;SDS011;59939;52.516;13.420;2023-01-16T14:38:18;8.43;;;1.60;;
72065;SDS011;59939;52.516;13.420;2023-01-16T14:41:26;8.37;;;1.93;;
72065;SDS011;59939;52.516;13.420;2023-01-16T14:48:50;3.83;;;1.60;;
72065;SDS011;59939;52.516;13.420;2023-01-16T14:52:13;6.67;;;1.43;;
72065;SDS011;59939;52.516;13.420;2023-01-16T14:55:52;4.40;;;1.70;;
72065;SDS011;59939;52.516;13.420;2023-01-16T15:02:15;3.10;;;1.27;;
72065;SDS011;59939;52.516;13.420;2023-01-16T15:05:27;8.73;;;2.03;;
72065;SDS011;59939;52.516;13.420;2023-01-16T15:08:53;7.17;;;2.00;;
72065;SDS011;59939;52.516;13.420;2023-01-16T15:12:00;7.90;;;1.67;;
72065;SDS011;59939;52.516;13.420;2023-01-16T15:15:24;9.00;;;1.87;;
72065;SDS011;59939;52.516;13.420;2023-01-16T15:18:28;9.13;;;1.90;;
72065;SDS011;59939;52.516;13.420;2023-01-16T15:21:52;5.87;;;2.00;;
72065;SDS011;59939;52.516;13.420;2023-01-16T15:31:53;5.37;;;1.53;;
72065;SDS011;59939;52.516;13.420;2023-01-16T15:35:06;5.97;;;1.83;;
72065;SDS011;59939;52.516;13.420;2023-01-16T15:38:15;7.97;;;1.80;;
72065;SDS011;59939;52.516;13.420;2023-01-16T15:41:20;6.57;;;1.93;;
72065;SDS011;59939;52.516;13.420;2023-01-16T15:44:45;4.07;;;1.67;;
72065;SDS011;59939;52.516;13.420;2023-01-16T15:51:31;7.63;;;2.13;;
72065;SDS011;59939;52.516;13.420;2023-01-16T15:54:42;6.03;;;2.10;;
72065;SDS011;59939;52.516;13.420;2023-01-16T15:58:01;6.73;;;2.23;;
72065;SDS011;59939;52.516;13.420;2023-01-16T16:01:07;10.03;;;2.40;;
72065;SDS011;59939;52.516;13.420;2023-01-16T16:04:11;8.70;;;1.97;;
72065;SDS011;59939;52.516;13.420;2023-01-16T16:07:14;9.37;;;2.10;;
72065;SDS011;59939;52.516;13.420;2023-01-16T16:10:19;6.17;;;1.77;;
72065;SDS011;59939;52.516;13.420;2023-01-16T16:13:42;9.20;;;2.03;;
72065;SDS011;59939;52.516;13.420;2023-01-16T16:20:39;8.50;;;2.40;;
72065;SDS011;59939;52.516;13.420;2023-01-16T16:23:43;9.50;;;2.10;;
72065;SDS011;59939;52.516;13.420;2023-01-16T16:26:49;6.87;;;1.87;;
72065;SDS011;59939;52.516;13.420;2023-01-16T16:29:54;8.77;;;2.23;;
72065;SDS011;59939;52.516;13.420;2023-01-16T16:32:58;3.17;;;1.60;;
72065;SDS011;59939;52.516;13.420;2023-01-16T16:36:13;7.97;;;2.03;;
72065;SDS011;59939;52.516;13.420;2023-01-16T16:39:40;6.67;;;2.20;;
72065;SDS011;59939;52.516;13.420;2023-01-16T16:42:47;10.13;;;2.60;;
72065;SDS011;59939;52.516;13.420;2023-01-16T16:45:51;9.97;;;2.40;;
72065;SDS011;59939;52.516;13.420;2023-01-16T16:52:20;6.97;;;2.13;;
72065;SDS011;59939;52.516;13.420;2023-01-16T16:55:36;5.03;;;1.80;;
72065;SDS011;59939;52.516;13.420;2023-01-16T16:58:55;8.93;;;2.43;;
72065;SDS011;59939;52.516;13.420;2023-01-16T17:02:11;10.87;;;2.23;;
72065;SDS011;59939;52.516;13.420;2023-01-16T17:05:15;7.73;;;2.00;;
72065;SDS011;59939;52.516;13.420;2023-01-16T17:08:25;7.13;;;2.33;;
72065;SDS011;59939;52.516;13.420;2023-01-16T17:11:32;6.33;;;1.93;;
72065;SDS011;59939;52.516;13.420;2023-01-16T17:14:43;7.43;;;2.20;;
72065;SDS011;59939;52.516;13.420;2023-01-16T17:17:55;7.47;;;2.10;;
72065;SDS011;59939;52.516;13.420;2023-01-16T17:21:02;6.97;;;2.00;;
72065;SDS011;59939;52.516;13.420;2023-01-16T17:24:14;6.17;;;1.90;;
72065;SDS011;59939;52.516;13.420;2023-01-16T17:27:18;6.13;;;2.07;;
72065;SDS011;59939;52.516;13.420;2023-01-16T17:30:24;8.13;;;2.83;;
72065;SDS011;59939;52.516;13.420;2023-01-16T17:33:28;8.00;;;2.40;;
72065;SDS011;59939;52.516;13.420;2023-01-16T17:36:33;9.00;;;2.67;;
72065;SDS011;59939;52.516;13.420;2023-01-16T17:39:37;7.67;;;2.73;;
72065;SDS011;59939;52.516;13.420;2023-01-16T17:42:41;8.07;;;2.03;;
72065;SDS011;59939;52.516;13.420;2023-01-16T17:46:05;6.93;;;2.43;;
72065;SDS011;59939;52.516;13.420;2023-01-16T17:49:18;8.23;;;2.33;;
72065;SDS011;59939;52.516;13.420;2023-01-16T17:52:22;4.73;;;2.20;;
72065;SDS011;59939;52.516;13.420;2023-01-16T17:55:26;6.43;;;2.30;;
72065;SDS011;59939;52.516;13.420;2023-01-16T17:58:49;5.53;;;2.37;;
72065;SDS011;59939;52.516;13.420;2023-01-16T18:01:57;6.97;;;2.30;;
72065;SDS011;59939;52.516;13.420;2023-01-16T18:05:02;7.67;;;2.07;;
72065;SDS011;59939;52.516;13.420;2023-01-16T18:08:07;8.70;;;2.70;;
72065;SDS011;59939;52.516;13.420;2023-01-16T18:11:19;8.43;;;2.63;;
72065;SDS011;59939;52.516;13.420;2023-01-16T18:14:50;6.43;;;1.93;;
72065;SDS011;59939;52.516;13.420;2023-01-16T18:18:13;7.90;;;2.83;;
72065;SDS011;59939;52.516;13.420;2023-01-16T18:21:17;8.83;;;3.07;;
72065;SDS011;59939;52.516;13.420;2023-01-16T18:24:41;6.87;;;2.40;;
72065;SDS011;59939;52.516;13.420;2023-01-16T18:27:47;7.87;;;2.60;;
72065;SDS011;59939;52.516;13.420;2023-01-16T18:30:51;7.67;;;3.10;;
72065;SDS011;59939;52.516;13.420;2023-01-16T18:33:54;10.10;;;3.13;;
72065;SDS011;59939;52.516;13.420;2023-01-16T18:36:58;9.27;;;2.80;;
72065;SDS011;59939;52.516;13.420;2023-01-16T18:40:03;10.20;;;3.07;;
72065;SDS011;59939;52.516;13.420;2023-01-16T18:43:28;6.43;;;2.30;;
72065;SDS011;59939;52.516;13.420;2023-01-16T18:46:51;8.67;;;2.67;;
72065;SDS011;59939;52.516;13.420;2023-01-16T18:50:14;11.93;;;3.70;;
72065;SDS011;59939;52.516;13.420;2023-01-16T18:53:41;8.80;;;3.20;;
72065;SDS011;59939;52.516;13.420;2023-01-16T18:57:14;9.33;;;3.70;;
72065;SDS011;59939;52.516;13.420;2023-01-16T19:00:42;14.30;;;3.53;;
72065;SDS011;59939;52.516;13.420;2023-01-16T19:04:05;8.03;;;2.70;;
72065;SDS011;59939;52.516;13.420;2023-01-16T19:07:16;5.00;;;2.13;;
72065;SDS011;59939;52.516;13.420;2023-01-16T19:10:27;10.57;;;3.17;;
72065;SDS011;59939;52.516;13.420;2023-01-16T19:13:32;11.17;;;3.47;;
72065;SDS011;59939;52.516;13.420;2023-01-16T19:16:44;7.97;;;2.10;;
72065;SDS011;59939;52.516;13.420;2023-01-16T19:19:49;9.23;;;2.70;;
72065;SDS011;59939;52.516;13.420;2023-01-16T19:22:53;10.10;;;3.00;;
72065;SDS011;59939;52.516;13.420;2023-01-16T19:25:58;13.47;;;3.23;;
72065;SDS011;59939;52.516;13.420;2023-01-16T19:29:07;10.57;;;3.10;;
72065;SDS011;59939;52.516;13.420;2023-01-16T19:32:10;11.13;;;3.37;;
72065;SDS011;59939;52.516;13.420;2023-01-16T19:35:14;8.27;;;2.60;;
72065;SDS011;59939;52.516;13.420;2023-01-16T19:38:18;8.73;;;2.97;;
72065;SDS011;59939;52.516;13.420;2023-01-16T19:41:31;10.43;;;3.30;;
72065;SDS011;59939;52.516;13.420;2023-01-16T19:44:57;7.87;;;3.40;;
72065;SDS011;59939;52.516;13.420;2023-01-16T19:48:22;7.87;;;2.63;;
72065;SDS011;59939;52.516;13.420;2023-01-16T19:51:26;11.10;;;2.90;;
72065;SDS011;59939;52.516;13.420;2023-01-16T19:54:30;6.73;;;2.63;;
72065;SDS011;59939;52.516;13.420;2023-01-16T19:57:34;7.33;;;2.70;;
72065;SDS011;59939;52.516;13.420;2023-01-16T20:00:37;4.43;;;2.00;;
72065;SDS011;59939;52.516;13.420;2023-01-16T20:03:45;9.10;;;2.63;;
72065;SDS011;59939;52.516;13.420;2023-01-16T20:06:50;9.30;;;3.07;;
72065;SDS011;59939;52.516;13.420;2023-01-16T20:09:54;9.47;;;3.17;;
72065;SDS011;59939;52.516;13.420;2023-01-16T20:12:57;8.00;;;2.63;;
72065;SDS011;59939;52.516;13.420;2023-01-16T20:16:02;8.87;;;3.17;;
72065;SDS011;59939;52.516;13.420;2023-01-16T20:19:08;9.60;;;2.57;;
72065;SDS011;59939;52.516;13.420;2023-01-16T20:22:11;8.17;;;2.80;;
72065;SDS011;59939;52.516;13.420;2023-01-16T20:25:21;7.87;;;2.80;;
72065;SDS011;59939;52.516;13.420;2023-01-16T20:28:24;7.93;;;2.07;;
72065;SDS011;59939;52.516;13.420;2023-01-16T20:31:30;6.37;;;2.33;;
72065;SDS011;59939;52.516;13.420;2023-01-16T20:34:37;7.30;;;2.63;;
72065;SDS011;59939;52.516;13.420;2023-01-16T20:37:40;8.77;;;2.90;;
72065;SDS011;59939;52.516;13.420;2023-01-16T20:40:44;7.10;;;2.53;;